sensor_id;sensor_type;location;lat;lon;timestamp;pressure;altitude;pressure_sealevel;temperature;humidity
13015;BME280;6573;57.696;11.950;2023-04-29T00:00:12;101374.72;;;12.15;100.00
13015;BME280;6573;57.696;11.950;2023-04-29T00:02:41;101383.50;;;12.20;100.00
13015;BME280;6573;57.696;11.950;2023-04-29T00:05:10;101388.78;;;12.17;100.00
13015;BME280;6573;57.696;11.950;2023-04-29T00:07:39;101378.25;;;12.05;100.00
13015;BME280;6573;57.696;11.950;2023-04-29T00:10:10;101374.72;;;12.03;100.00
13015;BME280;6573;57.696;11.950;2023-04-29T00:12:40;101386.13;;;12.06;100.00
13015;BME280;6573;57.696;11.950;2023-04-29T00:15:09;101371.22;;;12.10;100.00
13015;BME280;6573;57.696;11.950;2023-04-29T00:17:38;101381.75;;;12.04;100.00
13015;BME280;6573;57.696;11.950;2023-04-29T00:20:07;101374.72;;;12.09;100.00
13015;BME280;6573;57.696;11.950;2023-04-29T00:22:36;101322.00;;;12.00;100.00
13015;BME280;6573;57.696;11.950;2023-04-29T00:25:05;101369.44;;;12.30;100.00
13015;BME280;6573;57.696;11.950;2023-04-29T00:27:35;101371.19;;;12.25;100.00
13015;BME280;6573;57.696;11.950;2023-04-29T00:30:08;101365.91;;;12.11;100.00
13015;BME280;6573;57.696;11.950;2023-04-29T00:32:36;101374.72;;;12.18;100.00
13015;BME280;6573;57.696;11.950;2023-04-29T00:35:05;101370.31;;;12.14;100.00
13015;BME280;6573;57.696;11.950;2023-04-29T00:37:35;101367.69;;;12.20;100.00
13015;BME280;6573;57.696;11.950;2023-04-29T00:40:04;101317.59;;;11.90;100.00
13015;BME280;6573;57.696;11.950;2023-04-29T00:42:34;101358.91;;;12.12;100.00
13015;BME280;6573;57.696;11.950;2023-04-29T00:45:03;101353.59;;;12.06;100.00
13015;BME280;6573;57.696;11.950;2023-04-29T00:47:34;101345.72;;;12.07;100.00
13015;BME280;6573;57.696;11.950;2023-04-29T00:50:02;101353.63;;;12.15;100.00
13015;BME280;6573;57.696;11.950;2023-04-29T00:52:31;101360.66;;;12.13;100.00
13015;BME280;6573;57.696;11.950;2023-04-29T00:55:00;101354.50;;;12.02;100.00
13015;BME280;6573;57.696;11.950;2023-04-29T00:57:29;101358.00;;;12.04;100.00
13015;BME280;6573;57.696;11.950;2023-04-29T00:59:59;101357.13;;;12.02;100.00
13015;BME280;6573;57.696;11.950;2023-04-29T01:02:28;101353.63;;;12.03;100.00
13015;BME280;6573;57.696;11.950;2023-04-29T01:04:57;101350.13;;;11.98;100.00
13015;BME280;6573;57.696;11.950;2023-04-29T01:07:30;101353.63;;;12.12;100.00
13015;BME280;6573;57.696;11.950;2023-04-29T01:10:03;101352.75;;;12.14;100.00
13015;BME280;6573;57.696;11.950;2023-04-29T01:12:40;101360.66;;;12.07;100.00
13015;BME280;6573;57.696;11.950;2023-04-29T01:15:21;101355.38;;;12.16;100.00
13015;BME280;6573;57.696;11.950;2023-04-29T01:17:55;101351.84;;;12.29;100.00
13015;BME280;6573;57.696;11.950;2023-04-29T01:20:26;101348.34;;;12.27;100.00
13015;BME280;6573;57.696;11.950;2023-04-29T01:22:56;101343.03;;;12.36;100.00
13015;BME280;6573;57.696;11.950;2023-04-29T01:25:26;101351.88;;;12.23;100.00
13015;BME280;6573;57.696;11.950;2023-04-29T01:28:04;101343.94;;;12.18;100.00
13015;BME280;6573;57.696;11.950;2023-04-29T01:30:43;101337.78;;;12.06;100.00
13015;BME280;6573;57.696;11.950;2023-04-29T01:33:19;101292.09;;;11.77;100.00
13015;BME280;6573;57.696;11.950;2023-04-29T01:36:02;101345.69;;;11.98;100.00
13015;BME280;6573;57.696;11.950;2023-04-29T01:38:36;101335.16;;;11.89;100.00
13015;BME280;6573;57.696;11.950;2023-04-29T01:41:14;101350.13;;;11.98;100.00
13015;BME280;6573;57.696;11.950;2023-04-29T01:43:46;101343.97;;;12.00;100.00
13015;BME280;6573;57.696;11.950;2023-04-29T01:46:19;101344.84;;;11.95;100.00
13015;BME280;6573;57.696;11.950;2023-04-29T01:48:47;101339.56;;;11.92;100.00
13015;BME280;6573;57.696;11.950;2023-04-29T01:51:16;101341.31;;;11.90;100.00
13015;BME280;6573;57.696;11.950;2023-04-29T01:53:44;101345.72;;;11.85;100.00
13015;BME280;6573;57.696;11.950;2023-04-29T01:56:14;101343.09;;;11.76;100.00
13015;BME280;6573;57.696;11.950;2023-04-29T01:58:43;101337.81;;;11.73;100.00
13015;BME280;6573;57.696;11.950;2023-04-29T02:01:11;101332.53;;;11.69;100.00
13015;BME280;6573;57.696;11.950;2023-04-29T02:03:40;101327.25;;;11.69;100.00
13015;BME280;6573;57.696;11.950;2023-04-29T02:06:08;101325.47;;;11.62;100.00
13015;BME280;6573;57.696;11.950;2023-04-29T02:08:37;101329.84;;;11.57;100.00
13015;BME280;6573;57.696;11.950;2023-04-29T02:11:05;101320.19;;;11.53;100.00
13015;BME280;6573;57.696;11.950;2023-04-29T02:13:35;101336.00;;;11.62;100.00
13015;BME280;6573;57.696;11.950;2023-04-29T02:16:07;101330.72;;;11.56;100.00
13015;BME280;6573;57.696;11.950;2023-04-29T02:18:36;101317.53;;;11.56;100.00
13015;BME280;6573;57.696;11.950;2023-04-29T02:21:05;101316.66;;;11.57;100.00
13015;BME280;6573;57.696;11.950;2023-04-29T02:23:33;101320.19;;;11.53;100.00
13015;BME280;6573;57.696;11.950;2023-04-29T02:26:02;101326.31;;;11.54;100.00
13015;BME280;6573;57.696;11.950;2023-04-29T02:28:31;101318.41;;;11.46;100.00
13015;BME280;6573;57.696;11.950;2023-04-29T02:31:02;101326.31;;;11.45;100.00
13015;BME280;6573;57.696;11.950;2023-04-29T02:33:30;101323.66;;;11.40;100.00
13015;BME280;6573;57.696;11.950;2023-04-29T02:35:59;101324.53;;;11.39;100.00
13015;BME280;6573;57.696;11.950;2023-04-29T02:38:27;101320.13;;;11.41;100.00
13015;BME280;6573;57.696;11.950;2023-04-29T02:40:56;101313.16;;;11.43;100.00
13015;BME280;6573;57.696;11.950;2023-04-29T02:43:24;101306.09;;;11.33;100.00
13015;BME280;6573;57.696;11.950;2023-04-29T02:45:52;101293.78;;;11.32;100.00
13015;BME280;6573;57.696;11.950;2023-04-29T02:48:22;101292.03;;;11.31;100.00
13015;BME280;6573;57.696;11.950;2023-04-29T02:50:51;101286.78;;;11.34;100.00
13015;BME280;6573;57.696;11.950;2023-04-29T02:53:19;101294.66;;;11.27;100.00
13015;BME280;6573;57.696;11.950;2023-04-29T02:55:48;101296.44;;;11.23;100.00
13015;BME280;6573;57.696;11.950;2023-04-29T02:58:16;101304.34;;;11.26;100.00
13015;BME280;6573;57.696;11.950;2023-04-29T03:00:44;101293.81;;;11.26;100.00
13015;BME280;6573;57.696;11.950;2023-04-29T03:03:12;101255.16;;;11.16;100.00
13015;BME280;6573;57.696;11.950;2023-04-29T03:05:43;101295.53;;;11.36;100.00
13015;BME280;6573;57.696;11.950;2023-04-29T03:08:11;101283.28;;;11.26;100.00
13015;BME280;6573;57.696;11.950;2023-04-29T03:10:40;101292.03;;;11.34;100.00
13015;BME280;6573;57.696;11.950;2023-04-29T03:13:08;101287.66;;;11.30;100.00
13015;BME280;6573;57.696;11.950;2023-04-29T03:15:37;101288.53;;;11.35;100.00
13015;BME280;6573;57.696;11.950;2023-04-29T03:18:05;101280.63;;;11.37;100.00
13015;BME280;6573;57.696;11.950;2023-04-29T03:20:35;101285.03;;;11.30;100.00
13015;BME280;6573;57.696;11.950;2023-04-29T03:23:05;101280.63;;;11.29;100.00
13015;BME280;6573;57.696;11.950;2023-04-29T03:25:33;101279.75;;;11.26;100.00
13015;BME280;6573;57.696;11.950;2023-04-29T03:28:02;101283.25;;;11.29;100.00
13015;BME280;6573;57.696;11.950;2023-04-29T03:30:31;101282.41;;;11.33;100.00
13015;BME280;6573;57.696;11.950;2023-04-29T03:32:59;101275.38;;;11.38;100.00
13015;BME280;6573;57.696;11.950;2023-04-29T03:35:28;101272.75;;;11.50;100.00
13015;BME280;6573;57.696;11.950;2023-04-29T03:37:56;101268.34;;;11.49;100.00
13015;BME280;6573;57.696;11.950;2023-04-29T03:40:26;101274.50;;;11.42;100.00
13015;BME280;6573;57.696;11.950;2023-04-29T03:42:54;101259.56;;;11.35;100.00
13015;BME280;6573;57.696;11.950;2023-04-29T03:45:22;101256.94;;;11.35;100.00
13015;BME280;6573;57.696;11.950;2023-04-29T03:47:51;101264.84;;;11.46;100.00
13015;BME280;6573;57.696;11.950;2023-04-29T03:50:21;101265.72;;;11.52;100.00
13015;BME280;6573;57.696;11.950;2023-04-29T03:52:50;101256.06;;;11.48;100.00
13015;BME280;6573;57.696;11.950;2023-04-29T03:55:19;101234.09;;;11.34;100.00
13015;BME280;6573;57.696;11.950;2023-04-29T03:57:48;101249.91;;;11.43;100.00
13015;BME280;6573;57.696;11.950;2023-04-29T04:00:17;101255.16;;;11.46;100.00
13015;BME280;6573;57.696;11.950;2023-04-29T04:02:45;101246.38;;;11.44;100.00
13015;BME280;6573;57.696;11.950;2023-04-29T04:05:14;101251.66;;;11.52;100.00
13015;BME280;6573;57.696;11.950;2023-04-29T04:07:45;101249.91;;;11.52;100.00
13015;BME280;6573;57.696;11.950;2023-04-29T04:10:14;101241.13;;;11.50;100.00
13015;BME280;6573;57.696;11.950;2023-04-29T04:12:42;101255.19;;;11.58;100.00
13015;BME280;6573;57.696;11.950;2023-04-29T04:15:13;101211.25;;;11.39;100.00
13015;BME280;6573;57.696;11.950;2023-04-29T04:17:43;101241.16;;;11.53;100.00
13015;BME280;6573;57.696;11.950;2023-04-29T04:20:11;101242.91;;;11.60;100.00
13015;BME280;6573;57.696;11.950;2023-04-29T04:22:40;101246.41;;;11.68;100.00
13015;BME280;6573;57.696;11.950;2023-04-29T04:25:09;101242.88;;;11.63;100.00
13015;BME280;6573;57.696;11.950;2023-04-29T04:27:37;101242.00;;;11.63;100.00
13015;BME280;6573;57.696;11.950;2023-04-29T04:30:07;101217.44;;;11.61;100.00
13015;BME280;6573;57.696;11.950;2023-04-29T04:32:39;101233.25;;;11.78;100.00
13015;BME280;6573;57.696;11.950;2023-04-29T04:35:08;101232.38;;;11.76;100.00
13015;BME280;6573;57.696;11.950;2023-04-29T04:37:36;101217.44;;;11.68;100.00
13015;BME280;6573;57.696;11.950;2023-04-29T04:40:06;101220.97;;;11.75;100.00
13015;BME280;6573;57.696;11.950;2023-04-29T04:42:35;101218.28;;;11.89;100.00
13015;BME280;6573;57.696;11.950;2023-04-29T04:45:04;101210.38;;;11.81;100.00
13015;BME280;6573;57.696;11.950;2023-04-29T04:47:33;101219.16;;;11.94;100.00
13015;BME280;6573;57.696;11.950;2023-04-29T04:50:04;101227.94;;;11.97;100.00
13015;BME280;6573;57.696;11.950;2023-04-29T04:52:33;101225.28;;;12.02;100.00
13015;BME280;6573;57.696;11.950;2023-04-29T04:55:01;101232.31;;;12.06;100.00
13015;BME280;6573;57.696;11.950;2023-04-29T04:57:30;101222.63;;;12.09;100.00
13015;BME280;6573;57.696;11.950;2023-04-29T04:59:58;101219.97;;;12.23;100.00
13015;BME280;6573;57.696;11.950;2023-04-29T05:02:27;101216.44;;;12.24;100.00
13015;BME280;6573;57.696;11.950;2023-04-29T05:04:56;101226.94;;;12.33;100.00
13015;BME280;6573;57.696;11.950;2023-04-29T05:07:25;101193.56;;;12.29;100.00
13015;BME280;6573;57.696;11.950;2023-04-29T05:09:53;101205.84;;;12.42;100.00
13015;BME280;6573;57.696;11.950;2023-04-29T05:12:22;101211.06;;;12.48;100.00
13015;BME280;6573;57.696;11.950;2023-04-29T05:14:56;101211.09;;;12.42;100.00
13015;BME280;6573;57.696;11.950;2023-04-29T05:17:25;101196.09;;;12.58;100.00
13015;BME280;6573;57.696;11.950;2023-04-29T05:19:53;101203.09;;;12.59;100.00
13015;BME280;6573;57.696;11.950;2023-04-29T05:22:22;101177.63;;;12.53;100.00
13015;BME280;6573;57.696;11.950;2023-04-29T05:24:52;101201.22;;;12.83;100.00
13015;BME280;6573;57.696;11.950;2023-04-29T05:27:26;101193.31;;;12.80;100.00
13015;BME280;6573;57.696;11.950;2023-04-29T05:29:54;101188.94;;;12.79;100.00
13015;BME280;6573;57.696;11.950;2023-04-29T05:32:22;101189.81;;;12.78;100.00
13015;BME280;6573;57.696;11.950;2023-04-29T05:34:51;101138.03;;;12.56;100.00
13015;BME280;6573;57.696;11.950;2023-04-29T05:37:19;101172.16;;;12.86;100.00
13015;BME280;6573;57.696;11.950;2023-04-29T05:39:48;101192.38;;;12.92;100.00
13015;BME280;6573;57.696;11.950;2023-04-29T05:42:18;101187.06;;;12.96;100.00
13015;BME280;6573;57.696;11.950;2023-04-29T05:44:46;101189.63;;;13.09;100.00
13015;BME280;6573;57.696;11.950;2023-04-29T05:47:14;101180.84;;;13.07;100.00
13015;BME280;6573;57.696;11.950;2023-04-29T05:49:42;101166.78;;;13.02;100.00
13015;BME280;6573;57.696;11.950;2023-04-29T05:52:11;101175.50;;;13.13;100.00
13015;BME280;6573;57.696;11.950;2023-04-29T05:54:39;101180.78;;;13.13;100.00
13015;BME280;6573;57.696;11.950;2023-04-29T05:57:07;101168.47;;;13.15;100.00
13015;BME280;6573;57.696;11.950;2023-04-29T05:59:37;101170.00;;;13.41;100.00
13015;BME280;6573;57.696;11.950;2023-04-29T06:02:05;101175.28;;;13.40;100.00
13015;BME280;6573;57.696;11.950;2023-04-29T06:04:34;101173.47;;;13.48;100.00
13015;BME280;6573;57.696;11.950;2023-04-29T06:07:05;101156.88;;;13.34;100.00
13015;BME280;6573;57.696;11.950;2023-04-29T06:09:35;101180.56;;;13.40;100.00
13015;BME280;6573;57.696;11.950;2023-04-29T06:12:04;101175.38;;;13.31;100.00
13015;BME280;6573;57.696;11.950;2023-04-29T06:14:32;101177.03;;;13.47;100.00
13015;BME280;6573;57.696;11.950;2023-04-29T06:17:02;101171.75;;;13.44;100.00
13015;BME280;6573;57.696;11.950;2023-04-29T06:19:30;101169.03;;;13.51;100.00
13015;BME280;6573;57.696;11.950;2023-04-29T06:22:00;101164.59;;;13.55;100.00
13015;BME280;6573;57.696;11.950;2023-04-29T06:24:28;101152.28;;;13.54;100.00
13015;BME280;6573;57.696;11.950;2023-04-29T06:26:56;101159.97;;;13.75;100.00
13015;BME280;6573;57.696;11.950;2023-04-29T06:29:24;101168.78;;;13.79;100.00
13015;BME280;6573;57.696;11.950;2023-04-29T06:31:52;101166.00;;;13.89;100.00
13015;BME280;6573;57.696;11.950;2023-04-29T06:34:23;101165.25;;;13.75;100.00
13015;BME280;6573;57.696;11.950;2023-04-29T06:36:52;101157.34;;;13.75;100.00
13015;BME280;6573;57.696;11.950;2023-04-29T06:39:21;101164.44;;;13.70;100.00
13015;BME280;6573;57.696;11.950;2023-04-29T06:41:49;101157.28;;;13.81;100.00
13015;BME280;6573;57.696;11.950;2023-04-29T06:44:18;101160.69;;;13.89;100.00
13015;BME280;6573;57.696;11.950;2023-04-29T06:46:46;101153.84;;;13.73;100.00
13015;BME280;6573;57.696;11.950;2023-04-29T06:49:17;101151.84;;;13.93;100.00
13015;BME280;6573;57.696;11.950;2023-04-29T06:51:48;101125.59;;;13.75;100.00
13015;BME280;6573;57.696;11.950;2023-04-29T06:54:16;101134.38;;;13.77;100.00
13015;BME280;6573;57.696;11.950;2023-04-29T06:56:45;101153.81;;;13.76;100.00
13015;BME280;6573;57.696;11.950;2023-04-29T06:59:17;101155.53;;;13.77;100.00
13015;BME280;6573;57.696;11.950;2023-04-29T07:01:45;101140.63;;;13.73;100.00
13015;BME280;6573;57.696;11.950;2023-04-29T07:04:15;101143.16;;;13.82;100.00
13015;BME280;6573;57.696;11.950;2023-04-29T07:06:44;101130.75;;;13.87;100.00
13015;BME280;6573;57.696;11.950;2023-04-29T07:09:14;101112.38;;;13.75;100.00
13015;BME280;6573;57.696;11.950;2023-04-29T07:11:46;101115.00;;;13.78;100.00
13015;BME280;6573;57.696;11.950;2023-04-29T07:14:15;101123.75;;;13.83;100.00
13015;BME280;6573;57.696;11.950;2023-04-29T07:16:43;101100.75;;;13.91;100.00
13015;BME280;6573;57.696;11.950;2023-04-29T07:19:11;101122.56;;;14.11;100.00
13015;BME280;6573;57.696;11.950;2023-04-29T07:21:39;101132.03;;;14.27;100.00
13015;BME280;6573;57.696;11.950;2023-04-29T07:24:10;101116.19;;;14.24;100.00
13015;BME280;6573;57.696;11.950;2023-04-29T07:26:41;101126.81;;;14.21;100.00
13015;BME280;6573;57.696;11.950;2023-04-29T07:29:09;101109.31;;;14.11;100.00
13015;BME280;6573;57.696;11.950;2023-04-29T07:31:38;101117.44;;;13.96;100.00
13015;BME280;6573;57.696;11.950;2023-04-29T07:34:06;101124.63;;;13.87;100.00
13015;BME280;6573;57.696;11.950;2023-04-29T07:36:35;101122.16;;;13.67;100.00
13015;BME280;6573;57.696;11.950;2023-04-29T07:39:03;101125.63;;;13.72;100.00
13015;BME280;6573;57.696;11.950;2023-04-29T07:41:32;101130.91;;;13.75;100.00
13015;BME280;6573;57.696;11.950;2023-04-29T07:44:01;101123.94;;;13.68;100.00
13015;BME280;6573;57.696;11.950;2023-04-29T07:46:29;101123.91;;;13.71;100.00
13015;BME280;6573;57.696;11.950;2023-04-29T07:48:58;101129.19;;;13.71;100.00
13015;BME280;6573;57.696;11.950;2023-04-29T07:51:26;101121.25;;;13.70;100.00
13015;BME280;6573;57.696;11.950;2023-04-29T07:53:55;101122.28;;;13.55;100.00
13015;BME280;6573;57.696;11.950;2023-04-29T07:56:24;101118.91;;;13.41;100.00
13015;BME280;6573;57.696;11.950;2023-04-29T07:58:52;101115.97;;;13.71;100.00
13015;BME280;6573;57.696;11.950;2023-04-29T08:01:23;101122.13;;;13.70;100.00
13015;BME280;6573;57.696;11.950;2023-04-29T08:03:51;101110.00;;;13.54;100.00
13015;BME280;6573;57.696;11.950;2023-04-29T08:06:20;101127.78;;;13.34;100.00
13015;BME280;6573;57.696;11.950;2023-04-29T08:08:48;101117.44;;;13.04;100.00
13015;BME280;6573;57.696;11.950;2023-04-29T08:11:17;101120.88;;;13.18;100.00
13015;BME280;6573;57.696;11.950;2023-04-29T08:13:46;101115.91;;;12.75;100.00
13015;BME280;6573;57.696;11.950;2023-04-29T08:16:15;101117.84;;;12.49;100.00
13015;BME280;6573;57.696;11.950;2023-04-29T08:18:45;101125.75;;;12.52;100.00
13015;BME280;6573;57.696;11.950;2023-04-29T08:21:13;101116.91;;;12.56;100.00
13015;BME280;6573;57.696;11.950;2023-04-29T08:23:41;101117.81;;;12.55;100.00
13015;BME280;6573;57.696;11.950;2023-04-29T08:26:10;101109.56;;;13.02;100.00
13015;BME280;6573;57.696;11.950;2023-04-29T08:28:39;101114.06;;;12.86;100.00
13015;BME280;6573;57.696;11.950;2023-04-29T08:31:15;101109.47;;;13.17;100.00
13015;BME280;6573;57.696;11.950;2023-04-29T08:33:46;101126.22;;;13.06;100.00
13015;BME280;6573;57.696;11.950;2023-04-29T08:36:15;101117.47;;;13.07;100.00
13015;BME280;6573;57.696;11.950;2023-04-29T08:38:43;101112.28;;;12.91;100.00
13015;BME280;6573;57.696;11.950;2023-04-29T08:41:14;101126.44;;;12.81;100.00
13015;BME280;6573;57.696;11.950;2023-04-29T08:43:43;101126.16;;;13.18;100.00
13015;BME280;6573;57.696;11.950;2023-04-29T08:46:14;101128.31;;;12.64;100.00
13015;BME280;6573;57.696;11.950;2023-04-29T08:48:50;101122.94;;;12.79;100.00
13015;BME280;6573;57.696;11.950;2023-04-29T08:51:20;101134.53;;;12.53;100.00
13015;BME280;6573;57.696;11.950;2023-04-29T08:53:48;101124.81;;;12.62;100.00
13015;BME280;6573;57.696;11.950;2023-04-29T08:56:17;101105.44;;;12.63;100.00
13015;BME280;6573;57.696;11.950;2023-04-29T08:58:46;101122.84;;;12.88;100.00
13015;BME280;6573;57.696;11.950;2023-04-29T09:01:20;101117.44;;;13.04;100.00
13015;BME280;6573;57.696;11.950;2023-04-29T09:03:55;101090.16;;;13.08;100.00
13015;BME280;6573;57.696;11.950;2023-04-29T09:06:29;101112.09;;;13.19;100.00
13015;BME280;6573;57.696;11.950;2023-04-29T09:08:58;101124.47;;;13.08;100.00
13015;BME280;6573;57.696;11.950;2023-04-29T09:11:27;101071.84;;;12.80;100.00
13015;BME280;6573;57.696;11.950;2023-04-29T09:13:58;101117.47;;;13.07;100.00
13015;BME280;6573;57.696;11.950;2023-04-29T09:16:27;101108.81;;;12.80;100.00
13015;BME280;6573;57.696;11.950;2023-04-29T09:18:57;101119.53;;;12.59;100.00
13015;BME280;6573;57.696;11.950;2023-04-29T09:21:27;101114.09;;;12.83;100.00
13015;BME280;6573;57.696;11.950;2023-04-29T09:23:58;101104.25;;;13.10;100.00
13015;BME280;6573;57.696;11.950;2023-04-29T09:26:39;101107.13;;;12.73;100.00
13015;BME280;6573;57.696;11.950;2023-04-29T09:29:11;101095.50;;;12.95;100.00
13015;BME280;6573;57.696;11.950;2023-04-29T09:31:42;101068.19;;;12.99;100.00
13015;BME280;6573;57.696;11.950;2023-04-29T09:34:13;101108.78;;;12.86;100.00
13015;BME280;6573;57.696;11.950;2023-04-29T09:36:43;101113.31;;;12.69;100.00
13015;BME280;6573;57.696;11.950;2023-04-29T09:39:14;101106.22;;;12.77;100.00
13015;BME280;6573;57.696;11.950;2023-04-29T09:41:59;101114.19;;;12.71;100.00
13015;BME280;6573;57.696;11.950;2023-04-29T09:44:29;101094.66;;;12.93;100.00
13015;BME280;6573;57.696;11.950;2023-04-29T09:47:01;101066.38;;;13.03;100.00
13015;BME280;6573;57.696;11.950;2023-04-29T09:49:33;101104.72;;;13.51;100.00
13015;BME280;6573;57.696;11.950;2023-04-29T09:52:04;101089.88;;;13.38;100.00
13015;BME280;6573;57.696;11.950;2023-04-29T09:54:34;101097.16;;;13.15;100.00
13015;BME280;6573;57.696;11.950;2023-04-29T09:57:04;101078.81;;;12.93;100.00
13015;BME280;6573;57.696;11.950;2023-04-29T09:59:35;101098.69;;;13.35;100.00
13015;BME280;6573;57.696;11.950;2023-04-29T10:02:07;101061.03;;;13.17;100.00
13015;BME280;6573;57.696;11.950;2023-04-29T10:04:40;101092.63;;;13.29;100.00
13015;BME280;6573;57.696;11.950;2023-04-29T10:07:13;101081.88;;;13.47;100.00
13015;BME280;6573;57.696;11.950;2023-04-29T10:09:43;101085.09;;;13.73;100.00
13015;BME280;6573;57.696;11.950;2023-04-29T10:12:14;101099.00;;;13.90;100.00
13015;BME280;6573;57.696;11.950;2023-04-29T10:14:47;101094.53;;;13.15;100.00
13015;BME280;6573;57.696;11.950;2023-04-29T10:17:21;101073.47;;;12.99;100.00
13015;BME280;6573;57.696;11.950;2023-04-29T10:19:59;101091.13;;;12.94;100.00
13015;BME280;6573;57.696;11.950;2023-04-29T10:22:39;101064.56;;;13.16;100.00
13015;BME280;6573;57.696;11.950;2023-04-29T10:25:09;101076.28;;;13.74;100.00
13015;BME280;6573;57.696;11.950;2023-04-29T10:27:41;101074.63;;;13.64;100.00
13015;BME280;6573;57.696;11.950;2023-04-29T10:30:11;101076.88;;;13.20;100.00
13015;BME280;6573;57.696;11.950;2023-04-29T10:32:40;101082.16;;;13.15;100.00
13015;BME280;6573;57.696;11.950;2023-04-29T10:35:19;101093.78;;;12.94;100.00
13015;BME280;6573;57.696;11.950;2023-04-29T10:37:49;101096.13;;;13.31;100.00
13015;BME280;6573;57.696;11.950;2023-04-29T10:40:23;101097.75;;;13.44;100.00
13015;BME280;6573;57.696;11.950;2023-04-29T10:42:55;101085.66;;;13.19;100.00
13015;BME280;6573;57.696;11.950;2023-04-29T10:45:24;101075.09;;;13.19;100.00
13015;BME280;6573;57.696;11.950;2023-04-29T10:48:13;101070.28;;;13.58;100.00
13015;BME280;6573;57.696;11.950;2023-04-29T10:51:02;101065.41;;;13.98;100.00
13015;BME280;6573;57.696;11.950;2023-04-29T10:53:31;101066.06;;;14.15;100.00
13015;BME280;6573;57.696;11.950;2023-04-29T10:56:04;101051.88;;;14.21;100.00
13015;BME280;6573;57.696;11.950;2023-04-29T10:58:36;101047.16;;;13.76;100.00
13015;BME280;6573;57.696;11.950;2023-04-29T11:01:05;101051.69;;;13.66;100.00
13015;BME280;6573;57.696;11.950;2023-04-29T11:03:53;101074.34;;;13.88;100.00
13015;BME280;6573;57.696;11.950;2023-04-29T11:06:45;101063.91;;;13.76;100.00
13015;BME280;6573;57.696;11.950;2023-04-29T11:09:18;101083.06;;;13.96;100.00
13015;BME280;6573;57.696;11.950;2023-04-29T11:12:00;101090.22;;;13.88;100.00
13015;BME280;6573;57.696;11.950;2023-04-29T11:14:31;101092.91;;;13.82;100.00
13015;BME280;6573;57.696;11.950;2023-04-29T11:17:04;101077.94;;;13.84;100.00
13015;BME280;6573;57.696;11.950;2023-04-29T11:19:35;101060.28;;;13.86;100.00
13015;BME280;6573;57.696;11.950;2023-04-29T11:22:10;101065.59;;;13.83;100.00
13015;BME280;6573;57.696;11.950;2023-04-29T11:24:49;101084.88;;;13.91;100.00
13015;BME280;6573;57.696;11.950;2023-04-29T11:27:19;101078.28;;;14.22;100.00
13015;BME280;6573;57.696;11.950;2023-04-29T11:29:52;101088.19;;;14.08;100.00
13015;BME280;6573;57.696;11.950;2023-04-29T11:32:25;101075.63;;;14.25;100.00
13015;BME280;6573;57.696;11.950;2023-04-29T11:34:54;101082.78;;;14.17;100.00
13015;BME280;6573;57.696;11.950;2023-04-29T11:37:25;101082.34;;;14.51;100.00
13015;BME280;6573;57.696;11.950;2023-04-29T11:39:59;101080.88;;;14.28;100.00
13015;BME280;6573;57.696;11.950;2023-04-29T11:42:28;101073.78;;;14.34;100.00
13015;BME280;6573;57.696;11.950;2023-04-29T11:44:56;101078.75;;;14.55;100.00
13015;BME280;6573;57.696;11.950;2023-04-29T11:47:26;101093.66;;;13.96;100.00
13015;BME280;6573;57.696;11.950;2023-04-29T11:50:03;101068.53;;;14.27;100.00
13015;BME280;6573;57.696;11.950;2023-04-29T11:52:38;101078.28;;;14.22;100.00
13015;BME280;6573;57.696;11.950;2023-04-29T11:55:08;101076.91;;;14.60;100.00
13015;BME280;6573;57.696;11.950;2023-04-29T11:57:37;101080.34;;;14.65;100.00
13015;BME280;6573;57.696;11.950;2023-04-29T12:00:08;101068.09;;;14.61;100.00
13015;BME280;6573;57.696;11.950;2023-04-29T12:02:37;101070.22;;;14.35;100.00
13015;BME280;6573;57.696;11.950;2023-04-29T12:05:06;101074.53;;;14.42;100.00
13015;BME280;6573;57.696;11.950;2023-04-29T12:07:35;101079.88;;;14.39;100.00
13015;BME280;6573;57.696;11.950;2023-04-29T12:10:09;101079.59;;;14.57;100.00
13015;BME280;6573;57.696;11.950;2023-04-29T12:12:38;101078.72;;;14.58;100.00
13015;BME280;6573;57.696;11.950;2023-04-29T12:15:10;101080.88;;;14.28;100.00
13015;BME280;6573;57.696;11.950;2023-04-29T12:17:39;101068.59;;;14.21;100.00
13015;BME280;6573;57.696;11.950;2023-04-29T12:20:09;101089.53;;;14.43;100.00
13015;BME280;6573;57.696;11.950;2023-04-29T12:22:38;101076.81;;;14.66;100.00
13015;BME280;6573;57.696;11.950;2023-04-29T12:25:09;101078.25;;;14.88;100.00
13015;BME280;6573;57.696;11.950;2023-04-29T12:27:39;101078.44;;;14.76;100.00
13015;BME280;6573;57.696;11.950;2023-04-29T12:30:09;101084.25;;;14.40;100.00
13015;BME280;6573;57.696;11.950;2023-04-29T12:32:37;101088.97;;;14.79;100.00
13015;BME280;6573;57.696;11.950;2023-04-29T12:35:13;101068.28;;;14.49;100.00
13015;BME280;6573;57.696;11.950;2023-04-29T12:37:42;101096.97;;;14.10;100.00
13015;BME280;6573;57.696;11.950;2023-04-29T12:40:14;101098.59;;;14.23;100.00
13015;BME280;6573;57.696;11.950;2023-04-29T12:42:43;101098.13;;;14.57;100.00
13015;BME280;6573;57.696;11.950;2023-04-29T12:45:28;101088.38;;;14.59;100.00
13015;BME280;6573;57.696;11.950;2023-04-29T12:47:58;101096.56;;;14.42;100.00
13015;BME280;6573;57.696;11.950;2023-04-29T12:50:29;101083.19;;;14.53;100.00
13015;BME280;6573;57.696;11.950;2023-04-29T12:52:59;101109.06;;;14.33;100.00
13015;BME280;6573;57.696;11.950;2023-04-29T12:55:31;101099.00;;;14.57;100.00